Dayton, Idaho
Current Conditions -  °F | °C
As of 9:51 PM on Saturday 25 Oct 2014 (Local Time) from KLGU Reporting Station
Clear Clear  
Wind Chill: 66°   Ceiling: Unl
Heat Index: 66°   Visibility: 10mi
Dew Point: 33°   Wind: 12mph
Humidity: 29%   Direction: 170°S
Pressure: 29.84"   Gusts: NA
Location:  42.11°N, 111.99°W
Report Text: KLGU 260351Z AUTO 17010KT 10SM CLR 19/01 A2984 RMK AO2 SLP075 T01890006 TSNO
Loading
Personal Weather Stations






























Interactive Weather Map
Tropical Storm Tracking
New forecast layout! Learn more

10-Day Weather Forecast

Advertisements
Track Severe Weather on mobile